sensor_id;sensor_type;location;lat;lon;timestamp;temperature;humidity
48488;DHT22;34289;48.572;13.378;2022-12-07T00:03:31;3.30;99.90
48488;DHT22;34289;48.572;13.378;2022-12-07T00:06:01;3.30;99.90
48488;DHT22;34289;48.572;13.378;2022-12-07T00:08:27;3.30;99.90
48488;DHT22;34289;48.572;13.378;2022-12-07T00:10:53;3.40;99.90
48488;DHT22;34289;48.572;13.378;2022-12-07T00:13:18;3.30;99.90
48488;DHT22;34289;48.572;13.378;2022-12-07T00:15:44;3.30;99.90
48488;DHT22;34289;48.572;13.378;2022-12-07T00:18:09;3.30;99.90
48488;DHT22;34289;48.572;13.378;2022-12-07T00:20:35;3.40;99.90
48488;DHT22;34289;48.572;13.378;2022-12-07T00:23:01;3.30;99.90
48488;DHT22;34289;48.572;13.378;2022-12-07T00:25:26;3.30;99.90
48488;DHT22;34289;48.572;13.378;2022-12-07T00:27:53;3.30;99.90
48488;DHT22;34289;48.572;13.378;2022-12-07T00:30:21;3.40;99.90
48488;DHT22;34289;48.572;13.378;2022-12-07T00:32:46;3.40;99.90
48488;DHT22;34289;48.572;13.378;2022-12-07T00:35:13;3.50;99.90
48488;DHT22;34289;48.572;13.378;2022-12-07T00:37:38;3.40;99.90
48488;DHT22;34289;48.572;13.378;2022-12-07T00:40:05;3.40;99.90
48488;DHT22;34289;48.572;13.378;2022-12-07T00:42:30;3.40;99.90
48488;DHT22;34289;48.572;13.378;2022-12-07T00:44:56;3.40;99.90
48488;DHT22;34289;48.572;13.378;2022-12-07T00:47:22;3.50;99.90
48488;DHT22;34289;48.572;13.378;2022-12-07T00:49:50;3.50;99.90
48488;DHT22;34289;48.572;13.378;2022-12-07T00:52:15;3.50;99.90
48488;DHT22;34289;48.572;13.378;2022-12-07T00:54:41;3.40;99.90
48488;DHT22;34289;48.572;13.378;2022-12-07T00:57:07;3.40;99.90
48488;DHT22;34289;48.572;13.378;2022-12-07T00:59:32;3.30;99.90
48488;DHT22;34289;48.572;13.378;2022-12-07T01:01:58;3.20;99.90
48488;DHT22;34289;48.572;13.378;2022-12-07T01:04:23;3.20;99.90
48488;DHT22;34289;48.572;13.378;2022-12-07T01:06:49;3.30;99.90
48488;DHT22;34289;48.572;13.378;2022-12-07T01:09:15;3.20;99.90
48488;DHT22;34289;48.572;13.378;2022-12-07T01:11:41;3.40;99.90
48488;DHT22;34289;48.572;13.378;2022-12-07T01:14:06;3.20;99.90
48488;DHT22;34289;48.572;13.378;2022-12-07T01:16:33;3.20;99.90
48488;DHT22;34289;48.572;13.378;2022-12-07T01:18:59;3.60;99.90
48488;DHT22;34289;48.572;13.378;2022-12-07T01:21:30;3.30;99.90
48488;DHT22;34289;48.572;13.378;2022-12-07T01:24:05;3.30;99.90
48488;DHT22;34289;48.572;13.378;2022-12-07T01:26:31;3.30;99.90
48488;DHT22;34289;48.572;13.378;2022-12-07T01:28:57;3.20;99.90
48488;DHT22;34289;48.572;13.378;2022-12-07T01:31:26;3.30;99.90
48488;DHT22;34289;48.572;13.378;2022-12-07T01:33:57;3.30;99.90
48488;DHT22;34289;48.572;13.378;2022-12-07T01:36:29;3.30;99.90
48488;DHT22;34289;48.572;13.378;2022-12-07T01:39:01;3.30;99.90
48488;DHT22;34289;48.572;13.378;2022-12-07T01:41:30;3.30;99.90
48488;DHT22;34289;48.572;13.378;2022-12-07T01:44:13;3.30;99.90
48488;DHT22;34289;48.572;13.378;2022-12-07T01:46:39;3.30;99.90
48488;DHT22;34289;48.572;13.378;2022-12-07T01:49:08;3.30;99.90
48488;DHT22;34289;48.572;13.378;2022-12-07T01:51:35;3.30;99.90
48488;DHT22;34289;48.572;13.378;2022-12-07T01:54:02;3.30;99.90
48488;DHT22;34289;48.572;13.378;2022-12-07T01:56:28;3.30;99.90
48488;DHT22;34289;48.572;13.378;2022-12-07T01:58:55;3.20;99.90
48488;DHT22;34289;48.572;13.378;2022-12-07T02:01:22;3.30;99.90
48488;DHT22;34289;48.572;13.378;2022-12-07T02:03:48;3.60;99.90
48488;DHT22;34289;48.572;13.378;2022-12-07T02:06:19;3.30;99.90
48488;DHT22;34289;48.572;13.378;2022-12-07T02:08:47;3.30;99.90
48488;DHT22;34289;48.572;13.378;2022-12-07T02:11:13;3.30;99.90
48488;DHT22;34289;48.572;13.378;2022-12-07T02:13:40;3.30;99.90
48488;DHT22;34289;48.572;13.378;2022-12-07T02:32:15;3.30;99.90
48488;DHT22;34289;48.572;13.378;2022-12-07T02:34:47;3.30;99.90
48488;DHT22;34289;48.572;13.378;2022-12-07T02:42:51;3.30;99.90
48488;DHT22;34289;48.572;13.378;2022-12-07T02:45:21;3.30;99.90
48488;DHT22;34289;48.572;13.378;2022-12-07T02:47:51;3.40;99.90
48488;DHT22;34289;48.572;13.378;2022-12-07T02:50:21;3.20;99.90
48488;DHT22;34289;48.572;13.378;2022-12-07T02:52:47;3.20;99.90
48488;DHT22;34289;48.572;13.378;2022-12-07T02:55:15;3.30;99.90
48488;DHT22;34289;48.572;13.378;2022-12-07T02:58:13;3.30;99.90
48488;DHT22;34289;48.572;13.378;2022-12-07T03:00:50;3.30;99.90
48488;DHT22;34289;48.572;13.378;2022-12-07T03:03:17;3.20;99.90
48488;DHT22;34289;48.572;13.378;2022-12-07T03:08:35;3.80;99.90
48488;DHT22;34289;48.572;13.378;2022-12-07T03:12:14;3.10;99.90
48488;DHT22;34289;48.572;13.378;2022-12-07T03:14:09;3.20;99.90
48488;DHT22;34289;48.572;13.378;2022-12-07T03:19:20;3.10;99.90
48488;DHT22;34289;48.572;13.378;2022-12-07T03:21:51;3.20;99.90
48488;DHT22;34289;48.572;13.378;2022-12-07T03:24:22;3.10;99.90
48488;DHT22;34289;48.572;13.378;2022-12-07T03:26:55;3.10;99.90
48488;DHT22;34289;48.572;13.378;2022-12-07T03:29:31;3.20;99.90
48488;DHT22;34289;48.572;13.378;2022-12-07T03:37:46;3.20;99.90
48488;DHT22;34289;48.572;13.378;2022-12-07T03:40:23;3.20;99.90
48488;DHT22;34289;48.572;13.378;2022-12-07T03:42:52;3.10;99.90
48488;DHT22;34289;48.572;13.378;2022-12-07T03:45:23;3.10;99.90
48488;DHT22;34289;48.572;13.378;2022-12-07T03:48:06;3.10;99.90
48488;DHT22;34289;48.572;13.378;2022-12-07T03:53:15;3.40;99.90
48488;DHT22;34289;48.572;13.378;2022-12-07T03:55:44;3.30;99.90
48488;DHT22;34289;48.572;13.378;2022-12-07T03:58:15;3.20;99.90
48488;DHT22;34289;48.572;13.378;2022-12-07T04:00:42;3.20;99.90
48488;DHT22;34289;48.572;13.378;2022-12-07T04:03:08;3.30;99.90
48488;DHT22;34289;48.572;13.378;2022-12-07T04:05:33;3.20;99.90
48488;DHT22;34289;48.572;13.378;2022-12-07T04:08:00;3.10;99.90
48488;DHT22;34289;48.572;13.378;2022-12-07T04:10:25;3.10;99.90
48488;DHT22;34289;48.572;13.378;2022-12-07T04:12:51;3.30;99.90
48488;DHT22;34289;48.572;13.378;2022-12-07T04:15:17;3.10;99.90
48488;DHT22;34289;48.572;13.378;2022-12-07T04:17:42;3.10;99.90
48488;DHT22;34289;48.572;13.378;2022-12-07T04:20:08;3.10;99.90
48488;DHT22;34289;48.572;13.378;2022-12-07T04:22:34;3.00;99.90
48488;DHT22;34289;48.572;13.378;2022-12-07T04:25:00;3.00;99.90
48488;DHT22;34289;48.572;13.378;2022-12-07T04:27:26;3.00;99.90
48488;DHT22;34289;48.572;13.378;2022-12-07T04:29:52;3.00;99.90
48488;DHT22;34289;48.572;13.378;2022-12-07T04:32:17;3.00;99.90
48488;DHT22;34289;48.572;13.378;2022-12-07T04:34:43;3.10;99.90
48488;DHT22;34289;48.572;13.378;2022-12-07T04:37:08;3.10;99.90
48488;DHT22;34289;48.572;13.378;2022-12-07T04:39:34;3.00;99.90
48488;DHT22;34289;48.572;13.378;2022-12-07T04:42:00;3.00;99.90
48488;DHT22;34289;48.572;13.378;2022-12-07T04:44:27;3.10;99.90
48488;DHT22;34289;48.572;13.378;2022-12-07T04:46:53;3.10;99.90
48488;DHT22;34289;48.572;13.378;2022-12-07T04:49:19;3.00;99.90
48488;DHT22;34289;48.572;13.378;2022-12-07T04:51:45;3.00;99.90
48488;DHT22;34289;48.572;13.378;2022-12-07T04:54:12;3.00;99.90
48488;DHT22;34289;48.572;13.378;2022-12-07T04:56:38;2.90;99.90
48488;DHT22;34289;48.572;13.378;2022-12-07T04:59:04;2.90;99.90
48488;DHT22;34289;48.572;13.378;2022-12-07T05:01:30;2.90;99.90
48488;DHT22;34289;48.572;13.378;2022-12-07T05:03:56;3.00;99.90
48488;DHT22;34289;48.572;13.378;2022-12-07T05:06:22;3.10;99.90
48488;DHT22;34289;48.572;13.378;2022-12-07T05:08:47;3.00;99.90
48488;DHT22;34289;48.572;13.378;2022-12-07T05:11:19;3.00;99.90
48488;DHT22;34289;48.572;13.378;2022-12-07T05:14:09;2.90;99.90
48488;DHT22;34289;48.572;13.378;2022-12-07T05:16:35;2.90;99.90
48488;DHT22;34289;48.572;13.378;2022-12-07T05:19:01;2.90;99.90
48488;DHT22;34289;48.572;13.378;2022-12-07T05:21:26;2.90;99.90
48488;DHT22;34289;48.572;13.378;2022-12-07T05:23:52;2.90;99.90
48488;DHT22;34289;48.572;13.378;2022-12-07T05:26:18;2.90;99.90
48488;DHT22;34289;48.572;13.378;2022-12-07T05:28:43;2.80;99.90
48488;DHT22;34289;48.572;13.378;2022-12-07T05:31:09;2.80;99.90
48488;DHT22;34289;48.572;13.378;2022-12-07T05:33:34;2.80;99.90
48488;DHT22;34289;48.572;13.378;2022-12-07T05:36:00;2.80;99.90
48488;DHT22;34289;48.572;13.378;2022-12-07T05:38:31;2.80;99.90
48488;DHT22;34289;48.572;13.378;2022-12-07T05:41:09;2.80;99.90
48488;DHT22;34289;48.572;13.378;2022-12-07T05:43:57;2.80;99.90
48488;DHT22;34289;48.572;13.378;2022-12-07T05:46:22;2.80;99.90
48488;DHT22;34289;48.572;13.378;2022-12-07T05:48:48;2.80;99.90
48488;DHT22;34289;48.572;13.378;2022-12-07T05:51:13;2.80;99.90
48488;DHT22;34289;48.572;13.378;2022-12-07T05:53:39;2.70;99.90
48488;DHT22;34289;48.572;13.378;2022-12-07T05:56:05;2.60;99.90
48488;DHT22;34289;48.572;13.378;2022-12-07T05:58:30;2.70;99.90
48488;DHT22;34289;48.572;13.378;2022-12-07T06:01:14;2.60;99.90
48488;DHT22;34289;48.572;13.378;2022-12-07T06:03:40;2.70;99.90
48488;DHT22;34289;48.572;13.378;2022-12-07T06:06:06;2.70;99.90
48488;DHT22;34289;48.572;13.378;2022-12-07T06:08:31;2.70;99.90
48488;DHT22;34289;48.572;13.378;2022-12-07T06:10:57;2.70;99.90
48488;DHT22;34289;48.572;13.378;2022-12-07T06:13:41;2.60;99.90
48488;DHT22;34289;48.572;13.378;2022-12-07T06:16:07;2.60;99.90
48488;DHT22;34289;48.572;13.378;2022-12-07T06:18:32;2.60;99.90
48488;DHT22;34289;48.572;13.378;2022-12-07T06:20:59;2.60;99.90
48488;DHT22;34289;48.572;13.378;2022-12-07T06:23:25;2.60;99.90
48488;DHT22;34289;48.572;13.378;2022-12-07T06:25:50;2.60;99.90
48488;DHT22;34289;48.572;13.378;2022-12-07T06:28:16;2.90;99.90
48488;DHT22;34289;48.572;13.378;2022-12-07T06:30:42;2.60;99.90
48488;DHT22;34289;48.572;13.378;2022-12-07T06:33:07;2.50;99.90
48488;DHT22;34289;48.572;13.378;2022-12-07T06:35:33;2.50;99.90
48488;DHT22;34289;48.572;13.378;2022-12-07T06:37:59;2.50;99.90
48488;DHT22;34289;48.572;13.378;2022-12-07T06:40:24;2.50;99.90
48488;DHT22;34289;48.572;13.378;2022-12-07T06:42:50;2.50;99.90
48488;DHT22;34289;48.572;13.378;2022-12-07T06:45:16;2.50;99.90
48488;DHT22;34289;48.572;13.378;2022-12-07T06:47:41;2.60;99.90
48488;DHT22;34289;48.572;13.378;2022-12-07T06:50:07;2.60;99.90
48488;DHT22;34289;48.572;13.378;2022-12-07T06:52:33;2.70;99.90
48488;DHT22;34289;48.572;13.378;2022-12-07T06:54:59;2.70;99.90
48488;DHT22;34289;48.572;13.378;2022-12-07T06:57:25;2.80;99.90
48488;DHT22;34289;48.572;13.378;2022-12-07T06:59:51;2.70;99.90
48488;DHT22;34289;48.572;13.378;2022-12-07T07:02:17;3.10;99.90
48488;DHT22;34289;48.572;13.378;2022-12-07T07:04:43;2.80;99.90
48488;DHT22;34289;48.572;13.378;2022-12-07T07:07:11;2.90;99.90
48488;DHT22;34289;48.572;13.378;2022-12-07T07:09:37;2.90;99.90
48488;DHT22;34289;48.572;13.378;2022-12-07T07:12:03;2.90;99.90
48488;DHT22;34289;48.572;13.378;2022-12-07T07:14:28;2.90;99.90
48488;DHT22;34289;48.572;13.378;2022-12-07T07:16:54;2.90;99.90
48488;DHT22;34289;48.572;13.378;2022-12-07T07:19:19;3.00;99.90
48488;DHT22;34289;48.572;13.378;2022-12-07T07:21:45;3.00;99.90
48488;DHT22;34289;48.572;13.378;2022-12-07T07:24:11;3.00;99.90
48488;DHT22;34289;48.572;13.378;2022-12-07T07:26:36;3.00;99.90
48488;DHT22;34289;48.572;13.378;2022-12-07T07:29:02;3.00;99.90
48488;DHT22;34289;48.572;13.378;2022-12-07T07:31:27;2.90;99.90
48488;DHT22;34289;48.572;13.378;2022-12-07T07:33:53;2.90;99.90
48488;DHT22;34289;48.572;13.378;2022-12-07T07:36:21;2.90;99.90
48488;DHT22;34289;48.572;13.378;2022-12-07T07:38:47;2.90;99.90
48488;DHT22;34289;48.572;13.378;2022-12-07T07:41:13;3.20;99.90
48488;DHT22;34289;48.572;13.378;2022-12-07T07:43:38;3.90;99.90
48488;DHT22;34289;48.572;13.378;2022-12-07T07:46:04;4.10;99.90
48488;DHT22;34289;48.572;13.378;2022-12-07T07:48:30;4.60;99.90
48488;DHT22;34289;48.572;13.378;2022-12-07T07:50:55;6.00;99.90
48488;DHT22;34289;48.572;13.378;2022-12-07T07:53:21;7.40;99.90
48488;DHT22;34289;48.572;13.378;2022-12-07T07:55:55;9.10;99.90
48488;DHT22;34289;48.572;13.378;2022-12-07T07:58:21;10.40;99.90
48488;DHT22;34289;48.572;13.378;2022-12-07T08:00:47;11.20;99.90
48488;DHT22;34289;48.572;13.378;2022-12-07T08:03:13;11.70;99.90
48488;DHT22;34289;48.572;13.378;2022-12-07T08:05:38;12.90;99.90
48488;DHT22;34289;48.572;13.378;2022-12-07T08:08:04;13.30;99.90
48488;DHT22;34289;48.572;13.378;2022-12-07T08:10:30;13.10;99.90
48488;DHT22;34289;48.572;13.378;2022-12-07T08:12:58;13.40;99.90
48488;DHT22;34289;48.572;13.378;2022-12-07T08:15:41;13.90;99.70
48488;DHT22;34289;48.572;13.378;2022-12-07T08:18:07;14.40;99.20
48488;DHT22;34289;48.572;13.378;2022-12-07T08:20:34;15.10;97.90
48488;DHT22;34289;48.572;13.378;2022-12-07T08:23:00;15.20;97.30
48488;DHT22;34289;48.572;13.378;2022-12-07T08:25:27;15.80;95.60
48488;DHT22;34289;48.572;13.378;2022-12-07T08:27:53;15.70;95.90
48488;DHT22;34289;48.572;13.378;2022-12-07T08:30:19;15.70;95.80
48488;DHT22;34289;48.572;13.378;2022-12-07T08:32:45;16.10;95.10
48488;DHT22;34289;48.572;13.378;2022-12-07T08:35:12;16.30;95.00
48488;DHT22;34289;48.572;13.378;2022-12-07T08:37:38;16.70;93.90
48488;DHT22;34289;48.572;13.378;2022-12-07T08:40:05;17.10;92.80
48488;DHT22;34289;48.572;13.378;2022-12-07T08:42:31;17.30;92.60
48488;DHT22;34289;48.572;13.378;2022-12-07T08:45:09;17.30;92.20
48488;DHT22;34289;48.572;13.378;2022-12-07T08:47:41;17.50;91.80
48488;DHT22;34289;48.572;13.378;2022-12-07T08:50:10;16.90;92.60
48488;DHT22;34289;48.572;13.378;2022-12-07T08:52:37;16.90;92.70
48488;DHT22;34289;48.572;13.378;2022-12-07T08:55:04;16.90;91.90
48488;DHT22;34289;48.572;13.378;2022-12-07T08:57:31;16.90;91.10
48488;DHT22;34289;48.572;13.378;2022-12-07T08:59:58;16.30;92.00
48488;DHT22;34289;48.572;13.378;2022-12-07T09:02:23;15.90;92.40
48488;DHT22;34289;48.572;13.378;2022-12-07T09:04:49;14.60;93.00
48488;DHT22;34289;48.572;13.378;2022-12-07T09:07:15;13.00;94.90
48488;DHT22;34289;48.572;13.378;2022-12-07T09:09:40;11.40;97.80
48488;DHT22;34289;48.572;13.378;2022-12-07T09:12:07;10.10;99.90
48488;DHT22;34289;48.572;13.378;2022-12-07T09:14:33;8.90;99.90
48488;DHT22;34289;48.572;13.378;2022-12-07T09:17:24;8.00;99.90
48488;DHT22;34289;48.572;13.378;2022-12-07T09:19:50;7.70;99.90
48488;DHT22;34289;48.572;13.378;2022-12-07T09:22:16;7.30;99.90
48488;DHT22;34289;48.572;13.378;2022-12-07T09:24:41;6.90;99.90
48488;DHT22;34289;48.572;13.378;2022-12-07T09:27:07;6.70;99.90
48488;DHT22;34289;48.572;13.378;2022-12-07T09:29:32;6.50;99.90
48488;DHT22;34289;48.572;13.378;2022-12-07T09:31:58;6.10;99.90
48488;DHT22;34289;48.572;13.378;2022-12-07T09:34:24;5.80;99.90
48488;DHT22;34289;48.572;13.378;2022-12-07T09:36:51;5.80;99.90
48488;DHT22;34289;48.572;13.378;2022-12-07T09:39:17;5.60;99.90
48488;DHT22;34289;48.572;13.378;2022-12-07T09:41:43;5.50;99.90
48488;DHT22;34289;48.572;13.378;2022-12-07T09:44:16;5.50;99.90
48488;DHT22;34289;48.572;13.378;2022-12-07T09:46:43;5.60;99.90
48488;DHT22;34289;48.572;13.378;2022-12-07T09:49:17;5.70;99.90
48488;DHT22;34289;48.572;13.378;2022-12-07T09:51:43;5.60;99.90
48488;DHT22;34289;48.572;13.378;2022-12-07T09:54:12;5.30;99.90
48488;DHT22;34289;48.572;13.378;2022-12-07T09:56:39;5.30;99.90
48488;DHT22;34289;48.572;13.378;2022-12-07T09:59:04;5.40;99.90
48488;DHT22;34289;48.572;13.378;2022-12-07T10:01:32;5.60;99.90
48488;DHT22;34289;48.572;13.378;2022-12-07T10:04:22;5.70;99.90
48488;DHT22;34289;48.572;13.378;2022-12-07T10:06:49;5.50;99.90
48488;DHT22;34289;48.572;13.378;2022-12-07T10:09:18;5.40;99.90
48488;DHT22;34289;48.572;13.378;2022-12-07T10:12:08;5.50;99.90
48488;DHT22;34289;48.572;13.378;2022-12-07T10:14:53;5.50;99.90
48488;DHT22;34289;48.572;13.378;2022-12-07T10:17:32;5.50;99.90
48488;DHT22;34289;48.572;13.378;2022-12-07T10:23:04;5.70;99.90
48488;DHT22;34289;48.572;13.378;2022-12-07T10:25:32;5.60;99.90
48488;DHT22;34289;48.572;13.378;2022-12-07T10:28:17;5.70;99.90
48488;DHT22;34289;48.572;13.378;2022-12-07T10:30:59;5.70;99.90
48488;DHT22;34289;48.572;13.378;2022-12-07T10:34:00;5.90;99.90
48488;DHT22;34289;48.572;13.378;2022-12-07T10:39:19;5.80;99.90
48488;DHT22;34289;48.572;13.378;2022-12-07T10:42:02;5.90;99.90
48488;DHT22;34289;48.572;13.378;2022-12-07T10:44:30;5.90;99.90
48488;DHT22;34289;48.572;13.378;2022-12-07T10:47:20;6.10;99.90
48488;DHT22;34289;48.572;13.378;2022-12-07T10:55:04;6.30;99.90
48488;DHT22;34289;48.572;13.378;2022-12-07T11:00:30;6.20;99.90
48488;DHT22;34289;48.572;13.378;2022-12-07T11:03:21;6.00;99.90
48488;DHT22;34289;48.572;13.378;2022-12-07T11:06:14;6.00;99.90
48488;DHT22;34289;48.572;13.378;2022-12-07T11:09:00;6.00;99.90
48488;DHT22;34289;48.572;13.378;2022-12-07T11:11:42;5.90;99.90
48488;DHT22;34289;48.572;13.378;2022-12-07T11:14:54;6.00;99.90
48488;DHT22;34289;48.572;13.378;2022-12-07T11:17:30;6.10;99.90
48488;DHT22;34289;48.572;13.378;2022-12-07T11:22:57;5.90;99.90
48488;DHT22;34289;48.572;13.378;2022-12-07T11:33:51;6.00;99.90
48488;DHT22;34289;48.572;13.378;2022-12-07T11:36:47;5.90;99.90
48488;DHT22;34289;48.572;13.378;2022-12-07T11:39:33;5.90;99.90
48488;DHT22;34289;48.572;13.378;2022-12-07T11:42:12;5.90;99.90
48488;DHT22;34289;48.572;13.378;2022-12-07T11:44:51;5.70;99.90
48488;DHT22;34289;48.572;13.378;2022-12-07T11:47:39;5.60;99.90
48488;DHT22;34289;48.572;13.378;2022-12-07T11:58:55;5.70;99.90
48488;DHT22;34289;48.572;13.378;2022-12-07T12:06:37;5.70;99.90
48488;DHT22;34289;48.572;13.378;2022-12-07T12:09:12;5.70;99.90
48488;DHT22;34289;48.572;13.378;2022-12-07T12:12:34;5.80;99.90
48488;DHT22;34289;48.572;13.378;2022-12-07T12:17:16;5.80;99.90
48488;DHT22;34289;48.572;13.378;2022-12-07T12:25:53;5.60;99.90
48488;DHT22;34289;48.572;13.378;2022-12-07T12:28:29;5.60;99.90
48488;DHT22;34289;48.572;13.378;2022-12-07T12:31:05;5.50;99.90
48488;DHT22;34289;48.572;13.378;2022-12-07T12:33:32;5.30;99.90
48488;DHT22;34289;48.572;13.378;2022-12-07T12:46:59;5.50;99.90
48488;DHT22;34289;48.572;13.378;2022-12-07T12:51:56;5.50;99.90
48488;DHT22;34289;48.572;13.378;2022-12-07T12:54:37;5.60;99.90
48488;DHT22;34289;48.572;13.378;2022-12-07T13:02:48;5.30;99.90
48488;DHT22;34289;48.572;13.378;2022-12-07T13:18:14;5.50;99.90
48488;DHT22;34289;48.572;13.378;2022-12-07T13:23:19;5.30;99.90
48488;DHT22;34289;48.572;13.378;2022-12-07T13:31:42;5.00;99.90
48488;DHT22;34289;48.572;13.378;2022-12-07T13:34:37;5.00;99.90
48488;DHT22;34289;48.572;13.378;2022-12-07T13:37:28;5.00;99.90
48488;DHT22;34289;48.572;13.378;2022-12-07T13:39:59;5.00;99.90
48488;DHT22;34289;48.572;13.378;2022-12-07T13:44:56;5.00;99.90
48488;DHT22;34289;48.572;13.378;2022-12-07T13:47:35;4.90;99.90
48488;DHT22;34289;48.572;13.378;2022-12-07T13:50:23;4.90;99.90
48488;DHT22;34289;48.572;13.378;2022-12-07T13:52:49;4.90;99.90
48488;DHT22;34289;48.572;13.378;2022-12-07T13:55:16;4.90;99.90
48488;DHT22;34289;48.572;13.378;2022-12-07T13:57:45;4.90;99.90
48488;DHT22;34289;48.572;13.378;2022-12-07T14:00:23;4.90;99.90
48488;DHT22;34289;48.572;13.378;2022-12-07T14:03:01;4.90;99.90
48488;DHT22;34289;48.572;13.378;2022-12-07T14:05:29;5.00;99.90
48488;DHT22;34289;48.572;13.378;2022-12-07T14:07:58;4.90;99.90
48488;DHT22;34289;48.572;13.378;2022-12-07T14:10:31;4.80;99.90
48488;DHT22;34289;48.572;13.378;2022-12-07T14:12:58;4.80;99.90
48488;DHT22;34289;48.572;13.378;2022-12-07T14:15:29;4.80;99.90
48488;DHT22;34289;48.572;13.378;2022-12-07T14:17:57;4.80;99.90
48488;DHT22;34289;48.572;13.378;2022-12-07T14:20:43;4.80;99.90
48488;DHT22;34289;48.572;13.378;2022-12-07T14:23:24;4.80;99.90
48488;DHT22;34289;48.572;13.378;2022-12-07T14:25:52;4.70;99.90
48488;DHT22;34289;48.572;13.378;2022-12-07T14:28:35;4.70;99.90
48488;DHT22;34289;48.572;13.378;2022-12-07T14:31:01;4.60;99.90
48488;DHT22;34289;48.572;13.378;2022-12-07T14:33:28;5.20;99.90
48488;DHT22;34289;48.572;13.378;2022-12-07T14:35:54;4.60;99.90
48488;DHT22;34289;48.572;13.378;2022-12-07T14:38:29;4.60;99.90
48488;DHT22;34289;48.572;13.378;2022-12-07T14:40:56;4.70;99.90
48488;DHT22;34289;48.572;13.378;2022-12-07T14:43:45;4.60;99.90
48488;DHT22;34289;48.572;13.378;2022-12-07T14:46:10;4.60;99.90
48488;DHT22;34289;48.572;13.378;2022-12-07T14:48:36;4.50;99.90
48488;DHT22;34289;48.572;13.378;2022-12-07T14:51:02;4.60;99.90
48488;DHT22;34289;48.572;13.378;2022-12-07T14:53:33;4.60;99.90
48488;DHT22;34289;48.572;13.378;2022-12-07T14:56:03;4.60;99.90
48488;DHT22;34289;48.572;13.378;2022-12-07T14:58:31;4.50;99.90
48488;DHT22;34289;48.572;13.378;2022-12-07T15:00:57;4.50;99.90
48488;DHT22;34289;48.572;13.378;2022-12-07T15:03:23;4.50;99.90
48488;DHT22;34289;48.572;13.378;2022-12-07T15:05:49;4.40;99.90
48488;DHT22;34289;48.572;13.378;2022-12-07T15:08:14;4.20;99.90
48488;DHT22;34289;48.572;13.378;2022-12-07T15:10:40;4.30;99.90
48488;DHT22;34289;48.572;13.378;2022-12-07T15:13:06;4.30;99.90
48488;DHT22;34289;48.572;13.378;2022-12-07T15:15:52;4.30;99.90
48488;DHT22;34289;48.572;13.378;2022-12-07T15:18:19;4.60;99.90
48488;DHT22;34289;48.572;13.378;2022-12-07T15:20:45;4.30;99.90
48488;DHT22;34289;48.572;13.378;2022-12-07T15:23:12;4.20;99.90
48488;DHT22;34289;48.572;13.378;2022-12-07T15:25:45;4.20;99.90
48488;DHT22;34289;48.572;13.378;2022-12-07T15:28:10;4.20;99.90
48488;DHT22;34289;48.572;13.378;2022-12-07T15:30:41;4.20;99.90
48488;DHT22;34289;48.572;13.378;2022-12-07T15:33:08;4.20;99.90
48488;DHT22;34289;48.572;13.378;2022-12-07T15:35:37;4.20;99.90
48488;DHT22;34289;48.572;13.378;2022-12-07T15:38:03;4.20;99.90
48488;DHT22;34289;48.572;13.378;2022-12-07T15:40:29;4.10;99.90
48488;DHT22;34289;48.572;13.378;2022-12-07T15:42:54;4.00;99.90
48488;DHT22;34289;48.572;13.378;2022-12-07T15:45:20;3.90;99.90
48488;DHT22;34289;48.572;13.378;2022-12-07T15:47:46;3.90;99.90
48488;DHT22;34289;48.572;13.378;2022-12-07T15:50:13;3.90;99.90
48488;DHT22;34289;48.572;13.378;2022-12-07T15:52:40;3.90;99.90
48488;DHT22;34289;48.572;13.378;2022-12-07T15:55:06;3.90;99.90
48488;DHT22;34289;48.572;13.378;2022-12-07T15:57:34;3.90;99.90
48488;DHT22;34289;48.572;13.378;2022-12-07T16:00:00;3.90;99.90
48488;DHT22;34289;48.572;13.378;2022-12-07T16:02:26;4.00;99.90
48488;DHT22;34289;48.572;13.378;2022-12-07T16:04:52;4.00;99.90
48488;DHT22;34289;48.572;13.378;2022-12-07T16:07:18;3.90;99.90
48488;DHT22;34289;48.572;13.378;2022-12-07T16:09:45;3.80;99.90
48488;DHT22;34289;48.572;13.378;2022-12-07T16:12:12;3.80;99.90
48488;DHT22;34289;48.572;13.378;2022-12-07T16:14:38;3.70;99.90
48488;DHT22;34289;48.572;13.378;2022-12-07T16:17:05;3.70;99.90
48488;DHT22;34289;48.572;13.378;2022-12-07T16:19:32;3.70;99.90
48488;DHT22;34289;48.572;13.378;2022-12-07T16:21:58;3.70;99.90
48488;DHT22;34289;48.572;13.378;2022-12-07T16:24:24;3.60;99.90
48488;DHT22;34289;48.572;13.378;2022-12-07T16:26:50;3.60;99.90
48488;DHT22;34289;48.572;13.378;2022-12-07T16:29:17;3.60;99.90
48488;DHT22;34289;48.572;13.378;2022-12-07T16:31:43;3.50;99.90
48488;DHT22;34289;48.572;13.378;2022-12-07T16:34:08;3.60;99.90
48488;DHT22;34289;48.572;13.378;2022-12-07T16:36:34;3.60;99.90
48488;DHT22;34289;48.572;13.378;2022-12-07T16:39:00;3.60;99.90
48488;DHT22;34289;48.572;13.378;2022-12-07T16:41:26;3.60;99.90
48488;DHT22;34289;48.572;13.378;2022-12-07T16:43:55;3.60;99.90
48488;DHT22;34289;48.572;13.378;2022-12-07T16:46:21;3.60;99.90
48488;DHT22;34289;48.572;13.378;2022-12-07T16:48:46;3.50;99.90
48488;DHT22;34289;48.572;13.378;2022-12-07T16:51:13;3.50;99.90
48488;DHT22;34289;48.572;13.378;2022-12-07T16:53:40;3.50;99.90
48488;DHT22;34289;48.572;13.378;2022-12-07T16:56:14;3.40;99.90
48488;DHT22;34289;48.572;13.378;2022-12-07T16:58:42;3.40;99.90
48488;DHT22;34289;48.572;13.378;2022-12-07T17:01:16;3.40;99.90
48488;DHT22;34289;48.572;13.378;2022-12-07T17:03:42;3.40;99.90
48488;DHT22;34289;48.572;13.378;2022-12-07T17:06:24;3.50;99.90
48488;DHT22;34289;48.572;13.378;2022-12-07T17:08:51;3.60;99.90
48488;DHT22;34289;48.572;13.378;2022-12-07T17:11:22;3.60;99.90
48488;DHT22;34289;48.572;13.378;2022-12-07T17:13:48;3.50;99.90
48488;DHT22;34289;48.572;13.378;2022-12-07T17:16:33;3.60;99.90
48488;DHT22;34289;48.572;13.378;2022-12-07T17:19:03;3.70;99.90
48488;DHT22;34289;48.572;13.378;2022-12-07T17:21:30;3.60;99.90
48488;DHT22;34289;48.572;13.378;2022-12-07T17:23:58;3.80;99.90
48488;DHT22;34289;48.572;13.378;2022-12-07T17:26:25;3.90;99.90
48488;DHT22;34289;48.572;13.378;2022-12-07T17:28:52;3.80;99.90
48488;DHT22;34289;48.572;13.378;2022-12-07T17:31:20;3.70;99.90
48488;DHT22;34289;48.572;13.378;2022-12-07T17:33:46;3.60;99.90
48488;DHT22;34289;48.572;13.378;2022-12-07T17:36:20;3.50;99.90
48488;DHT22;34289;48.572;13.378;2022-12-07T17:38:47;3.60;99.90
48488;DHT22;34289;48.572;13.378;2022-12-07T17:41:18;4.20;99.90
48488;DHT22;34289;48.572;13.378;2022-12-07T17:44:05;3.60;99.90
48488;DHT22;34289;48.572;13.378;2022-12-07T17:46:31;3.50;99.90
48488;DHT22;34289;48.572;13.378;2022-12-07T17:48:57;3.50;99.90
48488;DHT22;34289;48.572;13.378;2022-12-07T17:51:23;3.50;99.90
48488;DHT22;34289;48.572;13.378;2022-12-07T17:54:07;3.40;99.90